createdAt,value
2022-11-26T00:00:53.401Z,84.40
2022-11-26T00:03:20.445Z,85.80
2022-11-26T00:05:49.933Z,84.60
2022-11-26T00:08:23.222Z,84.60
2022-11-26T00:10:52.180Z,84.90
2022-11-26T00:13:23.033Z,84.70
2022-11-26T00:15:50.318Z,86.90
2022-11-26T00:18:17.634Z,85.40
2022-11-26T00:20:45.261Z,85.10
2022-11-26T00:23:21.265Z,84.30
2022-11-26T00:25:53.310Z,85.40
2022-11-26T00:28:29.854Z,88.30
2022-11-26T00:30:59.397Z,86.70
2022-11-26T00:33:27.227Z,85.20
2022-11-26T00:35:57.367Z,85.30
2022-11-26T00:38:24.620Z,85.90
2022-11-26T00:40:51.410Z,85.50
2022-11-26T00:43:18.123Z,85.20
2022-11-26T00:45:45.329Z,85.50
2022-11-26T00:48:12.114Z,85.30
2022-11-26T00:50:44.029Z,85.20
2022-11-26T00:53:13.749Z,87.20
2022-11-26T00:55:44.485Z,87.90
2022-11-26T00:58:43.909Z,87.20
2022-11-26T01:01:17.302Z,85.20
2022-11-26T01:03:44.180Z,84.20
2022-11-26T01:06:32.848Z,85.00
2022-11-26T01:08:59.651Z,85.00
2022-11-26T01:11:26.706Z,83.10
2022-11-26T01:13:54.748Z,81.20
2022-11-26T01:16:23.108Z,83.20
2022-11-26T01:18:51.182Z,81.60
2022-11-26T01:21:18.658Z,83.80
2022-11-26T01:23:45.840Z,84.30
2022-11-26T01:26:18.102Z,84.30
2022-11-26T01:28:45.313Z,84.70
2022-11-26T01:31:18.410Z,83.60
2022-11-26T01:33:45.333Z,81.60
2022-11-26T01:36:33.642Z,82.70
2022-11-26T01:39:03.750Z,85.20
2022-11-26T01:41:47.195Z,84.70
2022-11-26T01:44:25.786Z,85.70
2022-11-26T01:46:52.701Z,85.70
2022-11-26T01:49:19.375Z,86.60
2022-11-26T01:51:46.835Z,85.50
2022-11-26T01:54:14.214Z,84.60
2022-11-26T01:56:41.660Z,84.20
2022-11-26T01:59:11.025Z,83.20
2022-11-26T02:01:37.915Z,85.10
2022-11-26T02:04:15.956Z,87.90
2022-11-26T02:06:43.663Z,88.40
2022-11-26T02:09:11.595Z,88.80
2022-11-26T02:11:38.680Z,83.90
2022-11-26T02:14:09.304Z,85.70
2022-11-26T02:16:46.946Z,84.80
2022-11-26T02:19:35.450Z,87.20
2022-11-26T02:22:18.064Z,87.40
2022-11-26T02:24:49.201Z,85.00
2022-11-26T02:27:57.931Z,84.20
2022-11-26T02:30:24.737Z,84.90
2022-11-26T02:32:59.253Z,83.70
2022-11-26T02:35:48.238Z,87.40
2022-11-26T02:38:19.805Z,87.30
2022-11-26T02:40:46.444Z,87.60
2022-11-26T02:43:16.263Z,85.60
2022-11-26T02:45:53.311Z,86.70
2022-11-26T02:48:27.731Z,88.30
2022-11-26T02:50:58.541Z,87.60
2022-11-26T02:53:27.046Z,87.10
2022-11-26T02:56:02.512Z,87.70
2022-11-26T02:58:29.502Z,85.70
2022-11-26T03:00:57.496Z,87.30
2022-11-26T03:03:30.361Z,87.80
2022-11-26T03:06:01.495Z,86.50
2022-11-26T03:08:28.928Z,87.00
2022-11-26T03:10:55.608Z,85.70
2022-11-26T03:13:22.237Z,87.50
2022-11-26T03:15:48.889Z,85.00
2022-11-26T03:18:15.725Z,85.00
2022-11-26T03:20:42.458Z,84.70
2022-11-26T03:23:09.160Z,87.10
2022-11-26T03:25:36.172Z,86.80
2022-11-26T03:28:03.008Z,88.50
2022-11-26T03:30:29.649Z,86.40
2022-11-26T03:32:57.112Z,85.70
2022-11-26T03:35:24.028Z,85.00
2022-11-26T03:37:50.754Z,85.80
2022-11-26T03:40:17.753Z,87.00
2022-11-26T03:42:45.056Z,87.50
2022-11-26T03:45:12.399Z,87.20
2022-11-26T03:47:39.377Z,86.40
2022-11-26T03:50:07.070Z,89.40
2022-11-26T03:52:33.778Z,88.40
2022-11-26T03:55:00.444Z,89.50
2022-11-26T03:57:27.048Z,88.30
2022-11-26T03:59:53.825Z,89.60
2022-11-26T04:02:20.449Z,90.10
2022-11-26T04:04:47.128Z,90.00
2022-11-26T04:07:13.816Z,89.20
2022-11-26T04:09:40.454Z,88.70
2022-11-26T04:12:07.102Z,88.80
2022-11-26T04:14:33.752Z,87.10
2022-11-26T04:17:00.559Z,86.60
2022-11-26T04:19:27.511Z,85.10
2022-11-26T04:21:54.189Z,85.60
2022-11-26T04:24:20.806Z,83.90
2022-11-26T04:26:47.521Z,85.20
2022-11-26T04:29:14.202Z,87.40
2022-11-26T04:31:40.903Z,88.30
2022-11-26T04:34:07.612Z,89.60
2022-11-26T04:36:34.274Z,89.50
2022-11-26T04:39:01.038Z,89.80
2022-11-26T04:41:27.947Z,87.30
2022-11-26T04:43:54.652Z,86.80
2022-11-26T04:46:21.348Z,90.00
2022-11-26T04:48:47.999Z,88.70
2022-11-26T04:51:14.642Z,89.90
2022-11-26T04:53:41.352Z,90.60
2022-11-26T04:56:07.990Z,90.50
2022-11-26T04:58:34.776Z,90.40
2022-11-26T05:01:01.541Z,91.00
2022-11-26T05:03:28.261Z,91.30
2022-11-26T05:05:54.928Z,90.90
2022-11-26T05:08:21.602Z,91.20
2022-11-26T05:10:53.295Z,91.30
2022-11-26T05:13:19.986Z,91.10
2022-11-26T05:15:46.682Z,91.60
2022-11-26T05:18:13.383Z,91.70
2022-11-26T05:20:40.170Z,90.50
2022-11-26T05:23:06.785Z,91.20
2022-11-26T05:25:33.455Z,91.00
2022-11-26T05:28:00.126Z,91.50
2022-11-26T05:30:26.786Z,90.70
2022-11-26T05:32:53.458Z,90.20
2022-11-26T05:35:20.216Z,90.20
2022-11-26T05:37:46.916Z,90.20
2022-11-26T05:40:13.875Z,90.50
2022-11-26T05:42:40.550Z,89.70
2022-11-26T05:45:07.928Z,89.30
2022-11-26T05:47:34.724Z,87.80
2022-11-26T05:50:01.535Z,88.10
2022-11-26T05:52:28.165Z,88.10
2022-11-26T05:54:54.804Z,89.90
2022-11-26T05:57:21.576Z,87.30
2022-11-26T05:59:51.374Z,88.90
2022-11-26T06:02:18.154Z,89.10
2022-11-26T06:04:44.879Z,89.20
2022-11-26T06:07:11.694Z,90.00
2022-11-26T06:09:41.477Z,89.70
2022-11-26T06:12:08.292Z,90.00
2022-11-26T06:14:38.074Z,90.20
2022-11-26T06:17:07.041Z,89.00
2022-11-26T06:19:33.667Z,88.00
2022-11-26T06:22:00.310Z,87.50
2022-11-26T06:24:27.150Z,87.40
2022-11-26T06:26:53.801Z,87.70
2022-11-26T06:29:24.885Z,86.00
2022-11-26T06:31:54.541Z,85.90
2022-11-26T06:34:21.398Z,84.10
2022-11-26T06:36:48.166Z,83.40
2022-11-26T06:39:15.156Z,84.80
2022-11-26T06:41:42.130Z,84.90
2022-11-26T06:44:08.834Z,84.30
2022-11-26T06:46:36.155Z,82.10
2022-11-26T06:49:04.353Z,81.10
2022-11-26T06:51:31.634Z,81.70
2022-11-26T06:53:58.510Z,80.50
2022-11-26T06:56:25.222Z,80.50
2022-11-26T06:58:54.997Z,80.30
2022-11-26T07:01:26.283Z,77.60
2022-11-26T07:03:53.535Z,76.30
2022-11-26T07:06:25.640Z,75.40
2022-11-26T07:08:53.564Z,73.50
2022-11-26T07:11:20.989Z,72.90
2022-11-26T07:13:48.028Z,74.70
2022-11-26T07:16:15.338Z,75.50
2022-11-26T07:18:42.347Z,71.70
2022-11-26T07:21:13.228Z,70.70
2022-11-26T07:23:40.626Z,71.50
2022-11-26T07:26:08.293Z,71.10
2022-11-26T07:28:35.390Z,71.30
2022-11-26T07:31:09.217Z,69.70
2022-11-26T07:33:38.890Z,70.60
2022-11-26T07:36:07.795Z,70.30
2022-11-26T07:38:34.843Z,70.80
2022-11-26T07:41:07.126Z,73.40
2022-11-26T07:43:38.178Z,74.70
2022-11-26T07:46:06.427Z,73.90
2022-11-26T07:48:33.870Z,75.50
2022-11-26T07:51:01.332Z,77.60
2022-11-26T07:53:31.905Z,78.00
2022-11-26T07:55:58.539Z,78.70
2022-11-26T07:58:26.720Z,77.90
2022-11-26T08:00:54.984Z,81.30
2022-11-26T08:03:22.048Z,81.60
2022-11-26T08:05:48.714Z,82.30
2022-11-26T08:08:15.534Z,83.10
2022-11-26T08:10:42.229Z,83.00
2022-11-26T08:13:08.864Z,85.30
2022-11-26T08:15:37.702Z,84.20
2022-11-26T08:18:04.411Z,85.40
2022-11-26T08:20:33.103Z,85.40
2022-11-26T08:22:59.722Z,86.20
2022-11-26T08:25:26.444Z,87.00
2022-11-26T08:27:53.082Z,88.70
2022-11-26T08:30:19.764Z,87.90
2022-11-26T08:32:46.364Z,88.10
2022-11-26T08:35:13.200Z,90.10
2022-11-26T08:37:42.421Z,88.60
2022-11-26T08:40:09.661Z,89.10
2022-11-26T08:42:36.349Z,90.20
2022-11-26T08:45:03.170Z,90.10
2022-11-26T08:47:29.857Z,88.90
2022-11-26T08:49:56.565Z,89.70
2022-11-26T08:52:23.921Z,90.50
2022-11-26T08:54:50.680Z,90.90
2022-11-26T08:57:17.381Z,91.20
2022-11-26T08:59:44.044Z,91.40
2022-11-26T09:02:15.963Z,91.50
2022-11-26T09:04:45.178Z,90.10
2022-11-26T09:07:11.832Z,90.30
2022-11-26T09:09:38.847Z,90.40
2022-11-26T09:12:05.728Z,90.90
2022-11-26T09:14:37.715Z,90.30
2022-11-26T09:17:04.778Z,88.80
2022-11-26T09:19:32.120Z,89.40
2022-11-26T09:21:59.705Z,89.50
2022-11-26T09:24:26.496Z,90.40
2022-11-26T09:26:53.441Z,90.40
2022-11-26T09:29:22.512Z,89.80
2022-11-26T09:32:21.514Z,91.00
2022-11-26T09:34:37.533Z,93.10
2022-11-26T09:37:04.367Z,99.90
2022-11-26T09:39:31.663Z,96.90
2022-11-26T09:42:13.450Z,96.00
2022-11-26T09:44:55.073Z,93.90
2022-11-26T09:47:24.173Z,95.20
2022-11-26T09:50:10.955Z,94.10
2022-11-26T09:52:42.608Z,93.70
2022-11-26T09:55:18.723Z,93.00
2022-11-26T09:58:22.221Z,94.10
2022-11-26T10:00:53.773Z,93.90
2022-11-26T10:03:25.751Z,93.20
2022-11-26T10:06:09.797Z,94.90
2022-11-26T10:08:36.369Z,95.30
2022-11-26T10:11:37.975Z,94.40
2022-11-26T10:14:23.747Z,94.20
2022-11-26T10:17:28.087Z,95.10
2022-11-26T10:20:06.690Z,95.80
2022-11-26T10:22:57.129Z,94.80
2022-11-26T10:25:27.390Z,95.00
2022-11-26T10:27:56.779Z,95.60
2022-11-26T10:30:28.702Z,97.20
2022-11-26T10:32:56.569Z,96.20
2022-11-26T10:35:29.496Z,96.80
2022-11-26T10:37:57.430Z,96.40
2022-11-26T10:40:29.406Z,96.40
2022-11-26T10:43:10.961Z,98.60
2022-11-26T10:45:50.862Z,97.80
2022-11-26T10:48:32.016Z,96.90
2022-11-26T10:51:17.638Z,98.20
2022-11-26T10:53:57.038Z,98.20
2022-11-26T10:56:42.462Z,98.80
2022-11-26T10:59:31.457Z,99.80
2022-11-26T11:02:03.304Z,99.40
2022-11-26T11:04:38.467Z,99.40
2022-11-26T11:07:10.325Z,97.70
2022-11-26T11:13:43.427Z,98.80
2022-11-26T11:16:11.053Z,99.30
2022-11-26T11:18:37.946Z,98.70
2022-11-26T11:21:05.152Z,98.50
2022-11-26T11:24:06.663Z,98.40
2022-11-26T11:26:58.888Z,98.40
2022-11-26T11:30:24.658Z,98.70
2022-11-26T11:32:57.120Z,98.80
2022-11-26T11:35:34.117Z,97.50
2022-11-26T11:38:01.275Z,98.80
2022-11-26T11:40:36.422Z,99.90
2022-11-26T11:43:05.775Z,98.90
2022-11-26T11:45:45.523Z,97.00
2022-11-26T11:48:37.534Z,97.30
2022-11-26T11:51:26.109Z,97.20
2022-11-26T11:54:12.944Z,97.60
2022-11-26T11:56:54.561Z,96.70
2022-11-26T12:00:13.610Z,95.20
2022-11-26T12:06:48.403Z,96.20
2022-11-26T12:10:14.576Z,95.90
2022-11-26T12:15:15.496Z,94.60
2022-11-26T12:17:55.603Z,93.90
2022-11-26T12:20:44.995Z,93.70
2022-11-26T12:23:22.645Z,93.10
2022-11-26T12:25:58.968Z,92.50
2022-11-26T12:28:37.573Z,91.80
2022-11-26T12:31:39.839Z,92.50
2022-11-26T12:34:18.317Z,92.20
2022-11-26T12:36:45.072Z,87.80
2022-11-26T12:39:18.970Z,88.80
2022-11-26T12:41:52.652Z,89.10
2022-11-26T12:44:33.360Z,85.80
2022-11-26T12:47:02.777Z,83.40
2022-11-26T12:49:55.562Z,79.90
2022-11-26T12:52:41.008Z,81.50
2022-11-26T12:55:21.519Z,80.30
2022-11-26T12:57:59.008Z,79.00
2022-11-26T13:00:36.068Z,78.00
2022-11-26T13:03:14.744Z,79.00
2022-11-26T13:06:04.446Z,76.90
2022-11-26T13:08:42.436Z,76.60
2022-11-26T13:11:37.064Z,74.10
2022-11-26T13:14:21.958Z,74.30
2022-11-26T13:17:05.400Z,74.70
2022-11-26T13:19:44.928Z,75.10
2022-11-26T13:22:49.181Z,78.70
2022-11-26T13:25:32.220Z,82.10
2022-11-26T13:28:05.289Z,84.80
2022-11-26T13:30:50.590Z,82.90
2022-11-26T13:33:20.403Z,82.00
2022-11-26T13:36:15.718Z,77.30
2022-11-26T13:38:48.316Z,78.00
2022-11-26T13:41:33.746Z,77.20
2022-11-26T13:44:39.409Z,75.30
2022-11-26T13:47:13.712Z,73.80
2022-11-26T13:50:03.133Z,74.90
2022-11-26T13:52:38.204Z,76.50
2022-11-26T13:55:09.914Z,75.90
2022-11-26T13:57:46.643Z,74.60
2022-11-26T14:00:28.828Z,74.50
2022-11-26T14:02:56.762Z,73.60
2022-11-26T14:05:23.695Z,72.40
2022-11-26T14:07:50.782Z,72.00
2022-11-26T14:10:41.393Z,72.50
2022-11-26T14:13:10.062Z,72.50
2022-11-26T14:15:42.654Z,71.00
2022-11-26T14:18:14.142Z,72.60
2022-11-26T14:21:02.257Z,74.30
2022-11-26T14:23:45.372Z,73.70
2022-11-26T14:26:24.870Z,73.30
2022-11-26T14:28:54.603Z,73.70
2022-11-26T14:31:27.932Z,75.40
2022-11-26T14:33:57.946Z,75.90
2022-11-26T14:36:30.169Z,75.30
2022-11-26T14:39:13.633Z,75.00
2022-11-26T14:41:43.323Z,76.30
2022-11-26T14:44:14.726Z,76.60
2022-11-26T14:46:42.848Z,77.00
2022-11-26T14:49:29.372Z,77.50
2022-11-26T14:51:56.189Z,77.50
2022-11-26T14:54:31.132Z,78.00
2022-11-26T14:57:02.407Z,78.80
2022-11-26T14:59:30.541Z,79.10
2022-11-26T15:01:57.283Z,78.70
2022-11-26T15:04:30.746Z,79.30
2022-11-26T15:06:58.612Z,80.00
2022-11-26T15:09:27.913Z,79.70
2022-11-26T15:12:01.261Z,80.90
2022-11-26T15:14:35.316Z,81.70
2022-11-26T15:17:02.935Z,80.70
2022-11-26T15:19:33.326Z,81.20
2022-11-26T15:22:02.933Z,82.40
2022-11-26T15:24:29.780Z,81.80
2022-11-26T15:26:56.561Z,81.40
2022-11-26T15:29:34.114Z,82.00
2022-11-26T15:32:01.179Z,81.30
2022-11-26T15:34:29.406Z,81.10
2022-11-26T15:36:56.382Z,81.00
2022-11-26T15:39:30.045Z,79.60
2022-11-26T15:42:04.021Z,79.90
2022-11-26T15:44:31.944Z,81.00
2022-11-26T15:47:00.018Z,80.20
2022-11-26T15:49:37.200Z,80.70
2022-11-26T15:52:08.122Z,80.90
2022-11-26T15:55:11.006Z,80.70
2022-11-26T15:57:34.028Z,80.90
2022-11-26T16:00:04.304Z,80.40
2022-11-26T16:02:32.137Z,80.70
2022-11-26T16:05:02.166Z,80.00
2022-11-26T16:07:33.240Z,79.60
2022-11-26T16:10:23.286Z,78.60
2022-11-26T16:13:12.046Z,75.00
2022-11-26T16:16:01.896Z,72.50
2022-11-26T16:18:51.991Z,74.30
2022-11-26T16:21:24.467Z,76.00
2022-11-26T16:23:53.827Z,74.70
2022-11-26T16:26:20.742Z,76.10
2022-11-26T16:28:48.021Z,73.10
2022-11-26T16:31:16.210Z,70.80
2022-11-26T16:33:43.610Z,69.90
2022-11-26T16:36:32.655Z,72.90
2022-11-26T16:38:59.437Z,70.90
2022-11-26T16:41:26.665Z,73.10
2022-11-26T16:43:53.379Z,74.10
2022-11-26T16:46:23.704Z,74.60
2022-11-26T16:48:51.316Z,73.90
2022-11-26T16:51:19.537Z,74.70
2022-11-26T16:53:46.237Z,74.60
2022-11-26T16:56:45.280Z,75.50
2022-11-26T16:59:19.481Z,76.60
2022-11-26T17:01:46.928Z,78.40
2022-11-26T17:04:15.514Z,77.20
2022-11-26T17:06:43.445Z,76.80
2022-11-26T17:09:19.325Z,78.20
2022-11-26T17:11:46.548Z,78.00
2022-11-26T17:14:13.306Z,75.20
2022-11-26T17:16:42.578Z,75.00
2022-11-26T17:19:15.251Z,75.60
2022-11-26T17:21:42.202Z,76.00
2022-11-26T17:24:09.179Z,76.70
2022-11-26T17:26:36.021Z,76.90
2022-11-26T17:29:03.012Z,75.70
2022-11-26T17:31:29.988Z,76.90
2022-11-26T17:33:56.900Z,75.90
2022-11-26T17:36:24.025Z,75.20
2022-11-26T17:38:51.080Z,76.10
2022-11-26T17:41:18.202Z,77.80
2022-11-26T17:43:44.998Z,77.20
2022-11-26T17:46:19.859Z,76.90
2022-11-26T17:48:46.817Z,76.50
2022-11-26T17:51:14.398Z,73.40
2022-11-26T17:53:41.887Z,75.50
2022-11-26T17:56:17.619Z,77.30
2022-11-26T17:58:44.342Z,77.40
2022-11-26T18:01:11.355Z,76.50
2022-11-26T18:03:38.339Z,75.80
2022-11-26T18:06:05.358Z,76.30
2022-11-26T18:08:32.102Z,73.70
2022-11-26T18:10:58.984Z,73.50
2022-11-26T18:13:27.284Z,75.30
2022-11-26T18:16:00.684Z,74.40
2022-11-26T18:18:27.890Z,75.80
2022-11-26T18:20:55.009Z,75.80
2022-11-26T18:23:21.787Z,74.90
2022-11-26T18:25:48.531Z,75.60
2022-11-26T18:28:16.716Z,75.70
2022-11-26T18:30:44.638Z,76.20
2022-11-26T18:33:15.716Z,75.20
2022-11-26T18:35:42.909Z,77.30
2022-11-26T18:38:11.363Z,78.50
2022-11-26T18:40:40.442Z,77.80
2022-11-26T18:43:07.143Z,79.20
2022-11-26T18:45:33.918Z,78.40
2022-11-26T18:48:01.152Z,81.30
2022-11-26T18:50:27.882Z,79.40
2022-11-26T18:52:58.273Z,79.60
2022-11-26T18:55:25.074Z,79.20
2022-11-26T18:57:51.827Z,80.20
2022-11-26T19:00:18.863Z,79.60
2022-11-26T19:02:45.567Z,79.00
2022-11-26T19:05:12.422Z,78.20
2022-11-26T19:07:39.319Z,78.10
2022-11-26T19:10:06.691Z,77.40
2022-11-26T19:12:33.341Z,75.40
2022-11-26T19:15:00.011Z,73.70
2022-11-26T19:17:26.760Z,74.40
2022-11-26T19:19:53.455Z,75.40
2022-11-26T19:22:20.170Z,73.70
2022-11-26T19:24:48.125Z,75.50
2022-11-26T19:27:14.879Z,75.80
2022-11-26T19:29:41.760Z,72.90
2022-11-26T19:32:08.682Z,74.30
2022-11-26T19:34:35.398Z,75.50
2022-11-26T19:37:02.091Z,73.70
2022-11-26T19:39:28.871Z,74.00
2022-11-26T19:41:55.581Z,71.00
2022-11-26T19:44:22.358Z,74.10
2022-11-26T19:46:49.060Z,72.90
2022-11-26T19:49:15.800Z,72.00
2022-11-26T19:51:42.917Z,72.30
2022-11-26T19:54:10.289Z,72.70
2022-11-26T19:56:37.039Z,69.40
2022-11-26T19:59:03.880Z,70.30
2022-11-26T20:01:32.976Z,69.70
2022-11-26T20:04:01.578Z,68.80
2022-11-26T20:06:29.911Z,68.80
2022-11-26T20:08:58.294Z,70.00
2022-11-26T20:11:27.089Z,70.20
2022-11-26T20:13:53.837Z,68.30
2022-11-26T20:16:23.351Z,67.40
2022-11-26T20:18:50.420Z,68.30
2022-11-26T20:21:22.343Z,69.70
2022-11-26T20:23:49.997Z,68.90
2022-11-26T20:26:22.663Z,68.80
2022-11-26T20:28:49.898Z,71.10
2022-11-26T20:31:23.022Z,67.30
2022-11-26T20:33:51.366Z,69.80
2022-11-26T20:36:20.877Z,68.00
2022-11-26T20:38:54.512Z,70.10
2022-11-26T20:41:22.370Z,69.30
2022-11-26T20:43:54.950Z,67.90
2022-11-26T20:46:25.781Z,67.50
2022-11-26T20:48:52.929Z,66.90
2022-11-26T20:51:21.890Z,66.50
2022-11-26T20:53:50.484Z,66.80
2022-11-26T20:56:18.859Z,65.90
2022-11-26T20:58:45.556Z,68.10
2022-11-26T21:01:16.197Z,67.00
2022-11-26T21:03:43.340Z,66.50
2022-11-26T21:06:10.211Z,67.90
2022-11-26T21:08:36.870Z,66.90
2022-11-26T21:11:04.611Z,67.50
2022-11-26T21:13:31.407Z,66.70
2022-11-26T21:16:01.987Z,67.90
2022-11-26T21:18:28.897Z,67.30
2022-11-26T21:20:55.577Z,66.70
2022-11-26T21:23:22.255Z,66.40
2022-11-26T21:25:48.999Z,64.20
2022-11-26T21:28:15.732Z,66.00
2022-11-26T21:30:42.523Z,65.50
2022-11-26T21:33:09.720Z,64.80
2022-11-26T21:35:36.983Z,66.40
2022-11-26T21:38:04.816Z,66.70
2022-11-26T21:40:31.883Z,64.70
2022-11-26T21:42:58.550Z,63.90
2022-11-26T21:45:27.589Z,64.70
2022-11-26T21:47:54.424Z,64.40
2022-11-26T21:50:21.408Z,65.10
2022-11-26T21:52:48.314Z,66.50
2022-11-26T21:55:15.072Z,67.30
2022-11-26T21:57:41.766Z,66.90
2022-11-26T22:00:10.539Z,68.20
2022-11-26T22:02:37.276Z,66.50
2022-11-26T22:05:04.253Z,67.40
2022-11-26T22:07:31.394Z,67.40
2022-11-26T22:09:58.388Z,69.10
2022-11-26T22:12:25.122Z,70.70
2022-11-26T22:14:51.815Z,70.00
2022-11-26T22:17:18.514Z,70.20
2022-11-26T22:19:45.257Z,71.50
2022-11-26T22:22:11.951Z,72.30
2022-11-26T22:24:38.600Z,72.90
2022-11-26T22:27:05.353Z,72.20
2022-11-26T22:29:32.022Z,71.80
2022-11-26T22:31:58.729Z,70.70
2022-11-26T22:34:27.777Z,73.60
2022-11-26T22:36:54.504Z,74.50
2022-11-26T22:39:21.226Z,74.60
2022-11-26T22:41:48.832Z,74.40
2022-11-26T22:44:16.229Z,74.50
2022-11-26T22:46:43.058Z,75.00
2022-11-26T22:49:18.825Z,74.90
2022-11-26T22:51:47.294Z,77.00
2022-11-26T22:54:15.442Z,77.00
2022-11-26T22:56:42.320Z,77.80
2022-11-26T22:59:12.384Z,78.10
2022-11-26T23:01:39.268Z,77.60
2022-11-26T23:04:08.266Z,78.70
2022-11-26T23:06:36.398Z,79.10
2022-11-26T23:09:04.897Z,80.70
2022-11-26T23:11:38.850Z,81.20
2022-11-26T23:14:07.632Z,80.50
2022-11-26T23:16:35.632Z,81.10
2022-11-26T23:19:03.238Z,81.40
2022-11-26T23:21:32.203Z,80.90
2022-11-26T23:23:59.016Z,80.50
2022-11-26T23:26:28.117Z,81.80
2022-11-26T23:28:59.101Z,81.60
2022-11-26T23:31:34.502Z,81.90
2022-11-26T23:34:02.090Z,82.50
2022-11-26T23:36:29.500Z,82.50
2022-11-26T23:38:56.696Z,82.00
2022-11-26T23:41:23.446Z,81.70
2022-11-26T23:43:50.126Z,80.70
2022-11-26T23:46:28.551Z,80.30
2022-11-26T23:48:55.765Z,81.40
2022-11-26T23:51:27.648Z,81.10
2022-11-26T23:53:54.893Z,81.10
2022-11-26T23:56:27.209Z,79.80
2022-11-26T23:58:57.672Z,80.70
